KWDG/WDG METAR and TAF weather

Enter ICAO airport designator
Station Type Date Time Source
KWDG METAR 2021/01/17 19:45 UTC NOAA

KWDG 171945Z 31022G28KT 10SM FEW050 FEW120 11/M07 A3002


Station Type Date Time Source
KWDG Decoded METAR 2021/01/17 19:45 UTC NOAA

Enid, Enid Woodring Regional Airport, OK, United States (KWDG) 36-22-45N 097-47-28W
Jan 17, 2021 - 02:45 PM EST / 2021.01.17 1945 UTC
Wind: from the NW (310 degrees) at 25 MPH (22 KT) gusting to 32 MPH (28 KT):0
Visibility: 10 mile(s):0
Sky conditions: mostly clear
Temperature: 51 F (11 C)
Dew Point: 19 F (-7 C)
Relative Humidity: 27%
Pressure (altimeter): 30.02 in. Hg (1016 hPa)
ob: KWDG 171945Z 31022G28KT 10SM FEW050 FEW120 11/M07 A3002
cycle: 20

Station Type Date Time Source
KWDG TAF UTC NOAA

Error!

Example: see airport list